»·PEaware :: N6515D 05U-O24

N6515D :: 05U-O24

FLIGHT INFORMATION

Flight Status: Arrived
Operator: Privately registered:
United States
More flights under this callsign
Pilot: Charles S. (11412)
Aircraft: Unknown
(DA62)
More flights by this aircraft type
Origin: 05U Eureka
United States
Destination: O24 Lee Vining
United States
More flights between these airports :: More routes between these airports
Route:
File this flight plan on PilotEdge
Remarks:
Altitude:
(Current/Filed)
12,500ft
Speed:
(Current/Filed)
270kts
Departed: 09-Oct-18 06:11 PM
Arrived: 09-Oct-18 07:22 PM
Distance/Time
Traveled:
176nm/1:11
Distance/Time
To Go:
Arrived

Flight Plot

Page will automatically refresh every two minutes.

Flight plan parsing failed; only flown route is shown


Map Options




Map Legend


Flown Route
Filed Route
Departure Airport
Arrival Airport
Navaid (VOR, NDB)
Fix

Horizontal Profiles

Position Reports

Time Latitude Longitude Heading Altitude Ground
Speed
09-Oct-18 18:11 39.605426 -116.004069 9 5958ft 21kts
09-Oct-18 18:12 39.611549 -116.002547 12 5958ft 19kts
09-Oct-18 18:13 39.607550 -116.002652 190 5958ft 83kts
09-Oct-18 18:14 39.582525 -116.014076 204 6573ft 109kts
09-Oct-18 18:15 39.552619 -116.031226 202 7402ft 124kts
09-Oct-18 18:16 39.519973 -116.049034 202 8210ft 131kts
09-Oct-18 18:17 39.486143 -116.067385 203 9011ft 133kts
09-Oct-18 18:18 39.451779 -116.086008 203 9810ft 135kts
09-Oct-18 18:19 39.417250 -116.104852 210 10603ft 135kts
09-Oct-18 18:20 39.396675 -116.145165 239 11403ft 135kts
09-Oct-18 18:21 39.378336 -116.187860 240 12201ft 136kts
09-Oct-18 18:22 39.359523 -116.231782 240 12697ft 153kts
09-Oct-18 18:23 39.337215 -116.283662 239 12764ft 168kts
09-Oct-18 18:24 39.313768 -116.338438 240 12691ft 176kts
09-Oct-18 18:25 39.289876 -116.393919 240 12691ft 177kts
09-Oct-18 18:26 39.266962 -116.446836 240 12965ft 168kts
09-Oct-18 18:27 39.244235 -116.499275 240 13251ft 166kts
09-Oct-18 18:28 39.221880 -116.550911 240 13536ft 166kts
09-Oct-18 18:29 39.199296 -116.603038 240 13824ft 166kts
09-Oct-18 18:30 39.177572 -116.653098 240 14101ft 166kts
09-Oct-18 18:31 39.155096 -116.704908 240 14399ft 166kts
09-Oct-18 18:32 39.136205 -116.748292 240 14647ft 167kts
09-Oct-18 18:33 39.108826 -116.811041 240 14692ft 177kts
09-Oct-18 18:34 39.085628 -116.866210 239 14693ft 178kts
09-Oct-18 18:35 39.060702 -116.921654 240 14691ft 179kts
09-Oct-18 18:36 39.036252 -116.977262 240 14691ft 179kts
09-Oct-18 18:37 39.015752 -117.023900 240 14691ft 179kts
09-Oct-18 18:38 38.987104 -117.088923 240 14691ft 179kts
09-Oct-18 18:39 38.966748 -117.135320 240 14691ft 179kts
09-Oct-18 18:40 38.942141 -117.190925 240 14690ft 179kts
09-Oct-18 18:41 38.917617 -117.246451 240 14690ft 179kts
09-Oct-18 18:42 38.893017 -117.301853 240 14691ft 179kts
09-Oct-18 18:43 38.868433 -117.357231 240 14691ft 180kts
09-Oct-18 18:44 38.843672 -117.412929 240 14691ft 180kts
09-Oct-18 18:45 38.818889 -117.468578 240 14691ft 180kts
09-Oct-18 18:46 38.794073 -117.524205 240 14691ft 179kts
09-Oct-18 18:47 38.769236 -117.579782 240 14691ft 179kts
09-Oct-18 18:48 38.744435 -117.635180 240 14691ft 179kts
09-Oct-18 18:49 38.719597 -117.690565 239 14693ft 180kts
09-Oct-18 18:50 38.694659 -117.746078 239 14692ft 180kts
09-Oct-18 18:51 38.669634 -117.801684 239 14692ft 180kts
09-Oct-18 18:52 38.644669 -117.857060 239 14692ft 180kts
09-Oct-18 18:53 38.619602 -117.912566 239 14692ft 180kts
09-Oct-18 18:54 38.594496 -117.968060 239 14692ft 180kts
09-Oct-18 18:55 38.569552 -118.023102 239 14692ft 180kts
09-Oct-18 18:56 38.536447 -118.084268 234 14691ft 180kts
09-Oct-18 18:57 38.512158 -118.127792 234 14691ft 180kts
09-Oct-18 18:58 38.483131 -118.179715 234 14691ft 180kts
09-Oct-18 18:59 38.454073 -118.231610 234 14691ft 180kts
09-Oct-18 19:00 38.420044 -118.292274 234 14691ft 180kts
09-Oct-18 19:01 38.395810 -118.335409 234 14691ft 180kts
09-Oct-18 19:02 38.366765 -118.387032 234 14691ft 180kts
09-Oct-18 19:03 38.337547 -118.438806 234 14690ft 180kts
09-Oct-18 19:04 38.308477 -118.490374 234 14690ft 180kts
09-Oct-18 19:05 38.279511 -118.541608 234 14691ft 179kts
09-Oct-18 19:06 38.250575 -118.592731 235 14690ft 179kts
09-Oct-18 19:07 38.223065 -118.641392 234 14690ft 179kts
09-Oct-18 19:08 38.194459 -118.691773 234 14692ft 180kts
09-Oct-18 19:09 38.167349 -118.739444 234 14692ft 180kts
09-Oct-18 19:10 38.138537 -118.790014 234 14691ft 180kts
09-Oct-18 19:11 38.109210 -118.841423 234 14691ft 180kts
09-Oct-18 19:12 38.079333 -118.894970 236 13892ft 205kts
09-Oct-18 19:13 38.052692 -118.964279 247 11153ft 215kts
09-Oct-18 19:14 38.027617 -119.032968 241 8509ft 216kts
09-Oct-18 19:15 38.000560 -119.087992 233 7398ft 160kts
09-Oct-18 19:16 37.977462 -119.114064 163 7019ft 90kts
09-Oct-18 19:17 37.955884 -119.105054 163 6783ft 46kts
09-Oct-18 19:18 37.985098 -119.111690 222 7050ft 95kts
09-Oct-18 19:24 37.954045 -119.104910 253 6787ft 0kts
09-Oct-18 19:25 37.954045 -119.104910 253 6787ft 0kts

Navigation Log

Ident Type
Flight plan parsing failed, navigation log unavailable